Terminal Aerodrome Forecast
Issued by NWS

Home | Current Version | Previous Version | Text Only | Print | Product List | Glossary On
Versions: 1 2 3 4 5 6 7 8 9 10
000
FTUS46 KHNX 281752
TAFMER
TAF
KMER 281752Z 2818/2918 00000KT 4SM BR SCT250
     FM281900 VRB03KT P6SM FEW250
     FM290600 VRB03KT 4SM BR SKC=

USA.gov is the U.S. government's official web portal to all federal, state and local government web resources and services.